Time;durP1;ratioP1;P1;durP2;ratioP2;P2;SDS_P1;SDS_P2;PMS_P1;PMS_P2;Temp;Humidity;BMP_temperature;BMP_pressure;BME280_temperature;BME280_humidity;BME280_pressure;Samples;Min_cycle;Max_cycle;Signal;HPM_P1;HPM_P2
2022/12/12 00:02:12;;;;;;;38.47;24.25;;;-0.80;99.90;;;;;;5027174;28;20215;-88
2022/12/12 00:04:40;;;;;;;43.88;23.90;;;-0.70;99.90;;;;;;5008286;28;20202;-88
2022/12/12 00:07:08;;;;;;;39.08;23.30;;;-0.80;99.90;;;;;;4991232;28;20210;-87
2022/12/12 00:09:35;;;;;;;40.17;24.40;;;-0.80;99.90;;;;;;5002112;28;20268;-88
2022/12/12 00:12:08;;;;;;;37.00;25.75;;;-0.70;99.90;;;;;;5003843;28;20210;-89
2022/12/12 00:14:36;;;;;;;42.03;25.85;;;-0.60;99.90;;;;;;5026109;28;20186;-90
2022/12/12 00:17:08;;;;;;;37.45;22.83;;;-0.50;99.90;;;;;;5008817;28;20217;-88
2022/12/12 00:19:38;;;;;;;39.92;19.27;;;-0.70;99.90;;;;;;5007819;28;20321;-90
2022/12/12 00:22:06;;;;;;;44.53;26.33;;;-0.70;99.90;;;;;;5014725;28;20203;-86
2022/12/12 00:24:54;;;;;;;38.63;24.08;;;-0.70;99.90;;;;;;5281504;22;20275;-88
2022/12/12 00:27:41;;;;;;;38.10;23.60;;;-0.60;99.90;;;;;;5028164;28;20198;-91
2022/12/12 00:30:11;;;;;;;40.13;24.08;;;-0.60;99.90;;;;;;5047941;28;20211;-91
2022/12/12 00:32:52;;;;;;;40.33;25.33;;;-0.80;99.90;;;;;;5036538;28;20194;-88
2022/12/12 00:35:24;;;;;;;44.05;23.15;;;-0.70;99.90;;;;;;5049567;28;20224;-89
2022/12/12 00:37:51;;;;;;;35.67;23.85;;;-0.70;99.90;;;;;;5036071;28;20335;-88
2022/12/12 00:40:21;;;;;;;33.08;22.00;;;-0.70;99.90;;;;;;5054563;28;20217;-87
2022/12/12 00:42:50;;;;;;;34.97;23.05;;;-0.70;99.90;;;;;;5053189;28;20209;-91
2022/12/12 00:45:23;;;;;;;33.60;20.90;;;-0.70;99.90;;;;;;5059318;28;20224;-86
2022/12/12 00:47:50;;;;;;;40.65;22.42;;;-0.70;99.90;;;;;;5057584;28;20235;-91
2022/12/12 00:50:50;;;;;;;35.42;22.52;;;-0.70;99.90;;;;;;5054239;28;20433;-89
2022/12/12 00:53:18;;;;;;;38.53;23.33;;;-0.70;99.90;;;;;;5054386;28;20268;-89
2022/12/12 00:55:57;;;;;;;36.70;22.15;;;-0.60;99.90;;;;;;5055793;28;20231;-84
2022/12/12 00:58:28;;;;;;;35.42;21.40;;;-0.60;99.90;;;;;;5054667;28;20235;-91
2022/12/12 01:01:05;;;;;;;33.50;20.70;;;-0.70;99.90;;;;;;5037073;28;20218;-89
2022/12/12 01:03:33;;;;;;;40.20;21.38;;;-0.50;99.90;;;;;;5047318;28;20208;-84
2022/12/12 01:06:03;;;;;;;34.38;20.95;;;-0.70;99.90;;;;;;5050955;28;20261;-89
2022/12/12 01:08:31;;;;;;;41.45;24.67;;;-0.70;99.90;;;;;;5046943;28;20205;-86
2022/12/12 01:11:15;;;;;;;40.00;22.80;;;-0.60;99.90;;;;;;5055039;28;20508;-85
2022/12/12 01:13:51;;;;;;;33.75;22.08;;;-0.60;99.90;;;;;;5054066;28;20208;-89
2022/12/12 01:16:24;;;;;;;29.65;20.67;;;-0.60;99.90;;;;;;5048877;28;20205;-88
2022/12/12 01:18:58;;;;;;;34.05;21.15;;;-0.60;99.90;;;;;;5042206;28;20319;-87
2022/12/12 01:21:27;;;;;;;35.97;22.00;;;-0.40;99.90;;;;;;5024914;28;20201;-86
2022/12/12 01:23:55;;;;;;;35.42;22.02;;;-0.40;99.90;;;;;;5042640;28;20736;-85
2022/12/12 01:26:25;;;;;;;36.35;20.58;;;-0.50;99.90;;;;;;5042785;28;20220;-86
2022/12/12 01:29:04;;;;;;;38.45;21.95;;;-0.50;99.90;;;;;;5034087;28;20550;-89
2022/12/12 01:31:37;;;;;;;38.05;23.50;;;-0.30;99.90;;;;;;5044520;28;20207;-90
2022/12/12 01:37:49;;;;;;;35.35;22.55;;;-0.60;99.90;;;;;;5055576;28;20169;-91
2022/12/12 01:43:20;;;;;;;30.20;19.85;;;-0.50;99.90;;;;;;5239390;22;20235;-87
2022/12/12 01:46:07;;;;;;;36.92;23.45;;;-0.50;99.90;;;;;;5120603;22;20267;-87
2022/12/12 01:49:02;;;;;;;35.92;21.80;;;-0.60;99.90;;;;;;5071726;28;20222;-88
2022/12/12 01:51:33;;;;;;;39.80;22.00;;;-0.50;99.90;;;;;;5063328;28;20196;-88
2022/12/12 01:54:08;;;;;;;41.08;23.25;;;-0.50;99.90;;;;;;5064978;28;20208;-89
2022/12/12 01:56:40;;;;;;;33.00;19.83;;;-0.60;99.90;;;;;;5052741;28;20213;-89
2022/12/12 01:59:15;;;;;;;35.28;18.67;;;-0.50;99.90;;;;;;5021113;28;20275;-89
2022/12/12 02:01:42;;;;;;;28.63;19.13;;;-0.60;99.90;;;;;;5037980;28;20262;-86
2022/12/12 02:04:14;;;;;;;34.65;19.83;;;-0.60;99.90;;;;;;5048003;28;20208;-90
2022/12/12 02:06:46;;;;;;;27.05;17.40;;;-0.60;99.90;;;;;;5068855;28;20204;-88
2022/12/12 02:09:15;;;;;;;36.60;20.60;;;-0.60;99.90;;;;;;5063232;28;20335;-86
2022/12/12 02:11:49;;;;;;;33.95;18.30;;;-0.50;99.90;;;;;;5063721;28;20196;-88
2022/12/12 02:14:25;;;;;;;28.85;19.33;;;-0.50;99.90;;;;;;5044734;28;20267;-85
2022/12/12 02:17:19;;;;;;;32.13;19.83;;;-0.50;99.90;;;;;;5075105;28;20286;-89
2022/12/12 02:20:11;;;;;;;40.05;21.38;;;-0.50;99.90;;;;;;5057101;28;20223;-86
2022/12/12 02:23:07;;;;;;;36.30;20.13;;;-0.50;99.90;;;;;;5050027;28;20210;-87
2022/12/12 02:26:10;;;;;;;36.20;23.17;;;-0.50;99.90;;;;;;5310232;22;20255;-88
2022/12/12 02:31:37;;;;;;;41.67;23.08;;;-0.50;99.90;;;;;;5245277;22;20292;-88
2022/12/12 02:34:50;;;;;;;36.90;19.90;;;-0.50;99.90;;;;;;5065118;28;20336;-89
2022/12/12 02:37:39;;;;;;;35.50;19.00;;;-0.50;99.90;;;;;;5051139;28;20223;-87
2022/12/12 02:41:02;;;;;;;35.80;20.55;;;-0.50;99.90;;;;;;5063078;28;20220;-87
2022/12/12 02:43:53;;;;;;;29.90;20.65;;;-0.60;99.90;;;;;;5050499;28;20262;-88
2022/12/12 02:46:50;;;;;;;38.85;21.75;;;-0.50;99.90;;;;;;5065667;28;20264;-90
2022/12/12 02:49:47;;;;;;;29.50;19.00;;;-0.40;99.90;;;;;;5066881;28;20204;-89
2022/12/12 02:52:18;;;;;;;33.33;19.95;;;-0.50;99.90;;;;;;5054291;28;20219;-87
2022/12/12 02:54:50;;;;;;;31.85;19.95;;;-0.50;99.90;;;;;;5068396;28;20208;-90
2022/12/12 02:57:24;;;;;;;31.50;18.88;;;-0.50;99.90;;;;;;5075816;28;20192;-89
2022/12/12 03:00:06;;;;;;;30.73;19.67;;;-0.50;99.90;;;;;;5237817;22;20204;-89
2022/12/12 03:02:45;;;;;;;34.55;20.13;;;-0.50;99.90;;;;;;5076447;28;20192;-87
2022/12/12 03:08:59;;;;;;;30.23;18.80;;;-0.50;99.90;;;;;;5047365;28;20232;-87
2022/12/12 03:11:53;;;;;;;36.63;18.20;;;-0.50;99.90;;;;;;5064639;28;20442;-88
2022/12/12 03:14:52;;;;;;;28.67;17.60;;;-0.50;99.90;;;;;;5049600;28;20201;-87
2022/12/12 03:17:41;;;;;;;35.22;19.55;;;-0.40;99.90;;;;;;5045547;28;20543;-87
2022/12/12 03:20:19;;;;;;;31.77;18.50;;;-0.40;99.90;;;;;;5069587;28;20247;-88
2022/12/12 03:23:14;;;;;;;30.83;17.80;;;-0.40;99.90;;;;;;5059700;28;20279;-86
2022/12/12 03:25:49;;;;;;;34.50;20.17;;;-0.50;99.90;;;;;;5065490;28;20207;-89
2022/12/12 03:28:31;;;;;;;30.90;20.02;;;-0.60;99.90;;;;;;5066075;28;20211;-87
2022/12/12 03:31:04;;;;;;;32.42;19.13;;;-0.50;99.90;;;;;;5061458;28;20208;-87
2022/12/12 03:33:45;;;;;;;28.05;18.20;;;-0.50;99.90;;;;;;5068237;28;20204;-86
2022/12/12 03:36:28;;;;;;;32.72;20.63;;;-0.50;99.90;;;;;;5069736;28;20200;-87
2022/12/12 03:39:16;;;;;;;31.27;19.65;;;-0.40;99.90;;;;;;5063098;28;20214;-89
2022/12/12 03:42:49;;;;;;;29.42;18.55;;;-0.40;99.90;;;;;;5063753;28;20232;-88
2022/12/12 03:45:50;;;;;;;29.30;19.00;;;-0.50;99.90;;;;;;5028314;28;20247;-87
2022/12/12 03:48:29;;;;;;;34.83;19.85;;;-0.30;99.90;;;;;;5049010;28;20570;-87
2022/12/12 03:51:17;;;;;;;34.72;22.13;;;-0.40;99.90;;;;;;5065432;28;20238;-90
2022/12/12 03:54:11;;;;;;;34.20;17.75;;;-0.40;99.90;;;;;;5059395;28;20244;-87
2022/12/12 03:57:29;;;;;;;31.48;18.73;;;-0.40;99.90;;;;;;5061361;28;20215;-86
2022/12/12 04:00:12;;;;;;;27.88;19.15;;;-0.40;99.90;;;;;;5026129;28;20226;-86
2022/12/12 04:03:02;;;;;;;30.50;18.92;;;-0.40;99.90;;;;;;5053064;28;20219;-86
2022/12/12 04:08:38;;;;;;;29.65;18.55;;;-0.30;99.90;;;;;;5065233;28;20221;-88
2022/12/12 04:14:45;;;;;;;33.00;19.10;;;-0.30;99.90;;;;;;5071608;28;20740;-89
2022/12/12 04:17:23;;;;;;;26.25;18.02;;;-0.30;99.90;;;;;;5072203;28;20263;-86
2022/12/12 04:23:16;;;;;;;36.47;19.77;;;-0.30;99.90;;;;;;5072208;28;20192;-87
2022/12/12 04:28:54;;;;;;;31.73;18.30;;;-0.30;99.90;;;;;;5072141;28;20204;-87
2022/12/12 04:31:25;;;;;;;33.28;21.02;;;-0.30;99.90;;;;;;5073657;28;20269;-84
2022/12/12 04:34:05;;;;;;;35.95;18.98;;;-0.40;99.90;;;;;;5075038;28;20192;-87
2022/12/12 04:36:34;;;;;;;28.95;18.55;;;-0.30;99.90;;;;;;5075048;28;20220;-84
2022/12/12 04:39:04;;;;;;;30.80;19.65;;;-0.30;99.90;;;;;;5075233;28;20219;-84
2022/12/12 04:41:36;;;;;;;39.55;19.77;;;-0.30;99.90;;;;;;5075058;28;20199;-87
2022/12/12 04:47:55;;;;;;;32.88;19.30;;;-0.30;99.90;;;;;;5068252;28;20238;-87
2022/12/12 04:50:24;;;;;;;31.67;19.02;;;-0.30;99.90;;;;;;5074488;28;20200;-89
2022/12/12 04:53:06;;;;;;;29.15;18.33;;;-0.30;99.90;;;;;;5073175;28;20357;-84
2022/12/12 04:55:49;;;;;;;27.50;18.15;;;-0.40;99.90;;;;;;5061996;28;20223;-87
2022/12/12 04:58:24;;;;;;;26.35;17.38;;;-0.40;99.90;;;;;;5073275;28;20248;-83
2022/12/12 05:01:01;;;;;;;29.38;18.27;;;-0.40;99.90;;;;;;5071853;28;20215;-85
2022/12/12 05:03:40;;;;;;;34.55;20.05;;;-0.40;99.90;;;;;;5075434;28;20213;-90
2022/12/12 05:06:16;;;;;;;35.55;19.63;;;-0.40;99.90;;;;;;5075876;28;20269;-89
2022/12/12 05:08:49;;;;;;;30.88;19.73;;;-0.30;99.90;;;;;;5075679;28;20204;-86
2022/12/12 05:11:20;;;;;;;33.83;18.35;;;-0.20;99.90;;;;;;5075636;28;20211;-85
2022/12/12 05:13:50;;;;;;;39.92;21.45;;;-0.20;99.90;;;;;;5076312;28;20304;-88
2022/12/12 05:16:37;;;;;;;26.15;16.77;;;-0.30;99.90;;;;;;5074829;28;20250;-87
2022/12/12 05:19:07;;;;;;;32.25;17.88;;;-0.30;99.90;;;;;;5072613;28;20440;-86
2022/12/12 05:21:34;;;;;;;30.50;19.05;;;-0.30;99.90;;;;;;5072030;28;20207;-85
2022/12/12 05:24:09;;;;;;;31.52;18.25;;;-0.30;99.90;;;;;;5074790;28;20360;-86
2022/12/12 05:26:36;;;;;;;28.10;17.42;;;-0.40;99.90;;;;;;5073759;28;20192;-85
2022/12/12 05:29:05;;;;;;;27.92;18.85;;;-0.40;99.90;;;;;;5072651;28;20223;-86
2022/12/12 05:32:11;;;;;;;36.97;17.73;;;-0.40;99.90;;;;;;5069593;28;20195;-89
2022/12/12 05:34:38;;;;;;;33.65;17.80;;;-0.40;99.90;;;;;;5077886;28;20271;-88
2022/12/12 05:37:06;;;;;;;30.52;20.02;;;-0.30;99.90;;;;;;5169622;22;20242;-88
2022/12/12 05:39:35;;;;;;;31.85;17.95;;;-0.30;99.90;;;;;;5171324;22;20295;-85
2022/12/12 05:42:02;;;;;;;34.80;17.17;;;-0.20;99.90;;;;;;5079617;28;20188;-87
2022/12/12 05:44:33;;;;;;;33.58;20.08;;;-0.30;99.90;;;;;;5067095;28;20205;-88
2022/12/12 05:47:20;;;;;;;29.05;16.58;;;-0.30;99.90;;;;;;5056195;28;20471;-84
2022/12/12 05:50:06;;;;;;;30.52;17.83;;;-0.30;99.90;;;;;;5073867;28;20203;-87
2022/12/12 05:52:46;;;;;;;33.05;16.42;;;-0.30;99.90;;;;;;5066076;28;20208;-85
2022/12/12 05:55:25;;;;;;;28.48;17.40;;;-0.30;99.90;;;;;;5066374;28;20196;-87
2022/12/12 05:57:52;;;;;;;26.10;16.33;;;-0.30;99.90;;;;;;5071581;28;20257;-86
2022/12/12 06:00:21;;;;;;;28.55;18.05;;;-0.30;99.90;;;;;;5067387;28;20223;-86
2022/12/12 06:02:50;;;;;;;34.03;18.33;;;-0.30;99.90;;;;;;5053531;28;20226;-86
2022/12/12 06:05:21;;;;;;;28.83;17.83;;;-0.30;99.90;;;;;;5067733;28;20295;-86
2022/12/12 06:07:58;;;;;;;26.17;16.67;;;-0.20;99.90;;;;;;5071617;28;20185;-88
2022/12/12 06:10:29;;;;;;;24.00;15.77;;;-0.30;99.90;;;;;;5071234;28;20200;-86
2022/12/12 06:13:05;;;;;;;27.27;17.15;;;-0.30;99.90;;;;;;5062302;28;20231;-86
2022/12/12 06:15:49;;;;;;;22.77;16.58;;;-0.20;99.90;;;;;;5587601;22;20250;-87
2022/12/12 06:18:37;;;;;;;28.27;15.82;;;-0.20;99.90;;;;;;5077274;28;20238;-88
2022/12/12 06:21:23;;;;;;;25.63;17.50;;;-0.20;99.90;;;;;;5080721;28;20227;-85
2022/12/12 06:23:53;;;;;;;23.95;14.55;;;0.00;99.90;;;;;;5064620;28;20231;-86
2022/12/12 06:26:21;;;;;;;30.83;17.60;;;-0.10;99.90;;;;;;5068429;28;20207;-87
2022/12/12 06:39:34;;;;;;;25.83;16.08;;;-0.20;99.90;;;;;;5774275;22;20670;-87
2022/12/12 06:42:07;;;;;;;24.80;13.68;;;-0.10;99.90;;;;;;4993731;28;20227;-85
2022/12/12 06:44:58;;;;;;;24.98;16.77;;;-0.10;99.90;;;;;;5008356;28;20192;-86
2022/12/12 07:06:02;;;;;;;25.38;14.00;;;-0.10;99.90;;;;;;5834771;23;20299;-86
2022/12/12 07:22:02;;;;;;;26.20;14.95;;;0.10;99.90;;;;;;5806261;23;20327;-87
2022/12/12 07:24:46;;;;;;;24.48;15.60;;;0.10;99.90;;;;;;5255723;23;20242;-89
2022/12/12 07:27:30;;;;;;;;;;;;;;;;;;;;;
2022/12/12 07:35:27;;;;;;;24.67;16.25;;;0.20;99.90;;;;;;5418165;23;20259;-87
2022/12/12 07:43:27;;;;;;;21.23;14.43;;;0.20;99.90;;;;;;1079229;23;20498;-85
2022/12/12 07:45:55;;;;;;;22.15;14.80;;;0.20;99.90;;;;;;5016650;28;20186;-86
2022/12/12 08:07:19;;;;;;;23.20;14.73;;;0.50;99.90;;;;;;5902195;23;20229;-88
2022/12/12 08:12:36;;;;;;;23.35;13.90;;;0.40;99.90;;;;;;5632660;23;20284;-86
2022/12/12 08:15:05;;;;;;;22.42;13.40;;;0.50;99.90;;;;;;5039134;28;20287;-86
2022/12/12 08:17:34;;;;;;;17.55;14.07;;;0.40;99.90;;;;;;5040373;28;20216;-87
2022/12/12 08:20:16;;;;;;;23.70;13.65;;;0.40;99.90;;;;;;5023690;28;20240;-89
2022/12/12 08:22:47;;;;;;;24.70;14.13;;;0.40;99.90;;;;;;5033205;28;20189;-86
2022/12/12 08:25:21;;;;;;;22.00;14.80;;;0.40;99.90;;;;;;5041846;28;20259;-88
2022/12/12 08:27:48;;;;;;;24.67;14.52;;;0.50;99.90;;;;;;5039338;28;20276;-87
2022/12/12 08:30:25;;;;;;;24.17;15.50;;;0.50;99.90;;;;;;5028582;28;20306;-85
2022/12/12 08:32:57;;;;;;;18.52;12.75;;;0.60;99.90;;;;;;5034284;28;20216;-86
2022/12/12 08:35:27;;;;;;;21.67;13.95;;;0.60;99.90;;;;;;5035665;28;20202;-86
2022/12/12 08:37:55;;;;;;;21.13;13.85;;;0.60;99.90;;;;;;5028185;28;20205;-86
2022/12/12 08:40:25;;;;;;;23.70;15.25;;;0.70;99.90;;;;;;5034554;28;20224;-89
2022/12/12 08:42:52;;;;;;;24.95;14.10;;;0.60;99.90;;;;;;5032824;28;20458;-86
2022/12/12 08:45:23;;;;;;;21.70;13.15;;;0.70;99.90;;;;;;5038001;28;20269;-87
2022/12/12 08:47:51;;;;;;;18.50;12.70;;;0.70;99.90;;;;;;5028082;28;20261;-84
2022/12/12 08:50:33;;;;;;;18.33;12.90;;;0.70;99.90;;;;;;5028285;28;20201;-86
2022/12/12 08:53:01;;;;;;;18.75;13.20;;;0.70;99.90;;;;;;5096038;23;20490;-87
2022/12/12 08:55:33;;;;;;;23.27;13.65;;;0.70;99.90;;;;;;5028236;28;20194;-85
2022/12/12 08:58:00;;;;;;;19.73;12.23;;;0.70;99.90;;;;;;5031115;28;20194;-86
2022/12/12 09:00:28;;;;;;;20.73;12.52;;;0.70;99.90;;;;;;5044473;28;20239;-84
2022/12/12 09:02:57;;;;;;;20.88;13.15;;;0.80;99.90;;;;;;5180026;23;20293;-86
2022/12/12 09:05:25;;;;;;;22.95;14.55;;;0.70;99.90;;;;;;4996086;28;20274;-85
2022/12/12 09:07:52;;;;;;;23.75;14.88;;;0.70;99.90;;;;;;4993268;28;20226;-89
2022/12/12 09:10:23;;;;;;;20.27;14.05;;;0.70;99.90;;;;;;4987671;28;20199;-86
2022/12/12 09:12:59;;;;;;;16.00;12.32;;;0.60;99.90;;;;;;4989773;28;20220;-85
2022/12/12 09:15:37;;;;;;;21.38;14.63;;;0.60;99.90;;;;;;4990018;28;20198;-87
2022/12/12 09:18:36;;;;;;;19.42;14.95;;;0.60;99.90;;;;;;5132259;27;20352;-87
2022/12/12 09:21:08;;;;;;;20.08;11.90;;;0.60;99.90;;;;;;5171816;22;20240;-88
2022/12/12 09:23:37;;;;;;;18.10;13.73;;;0.50;99.90;;;;;;5023981;28;20285;-86
2022/12/12 09:26:06;;;;;;;21.67;12.88;;;0.60;99.90;;;;;;5024690;28;20214;-87
2022/12/12 09:28:53;;;;;;;15.05;11.68;;;0.50;99.90;;;;;;5025574;28;20193;-85
2022/12/12 09:31:24;;;;;;;16.63;12.52;;;0.60;99.90;;;;;;5026361;28;20216;-87
2022/12/12 09:33:53;;;;;;;22.90;13.65;;;0.60;99.90;;;;;;5026476;28;20198;-88
2022/12/12 09:36:20;;;;;;;17.70;11.95;;;0.70;99.90;;;;;;5023313;28;20225;-86
2022/12/12 09:38:51;;;;;;;15.27;12.07;;;0.70;99.90;;;;;;5022766;28;20205;-85
2022/12/12 09:41:29;;;;;;;20.38;13.27;;;0.80;99.90;;;;;;5171952;23;20311;-86
2022/12/12 09:44:14;;;;;;;17.85;12.20;;;0.80;99.90;;;;;;5063771;28;20196;-87
2022/12/12 09:46:47;;;;;;;18.27;13.38;;;0.80;99.90;;;;;;5065548;28;20249;-87
2022/12/12 09:49:28;;;;;;;17.08;13.48;;;0.90;99.90;;;;;;5069671;28;20407;-89
2022/12/12 09:52:02;;;;;;;17.50;12.27;;;0.80;99.90;;;;;;5071450;28;20215;-87
2022/12/12 09:54:30;;;;;;;18.45;11.50;;;0.80;99.90;;;;;;5063137;28;20258;-88
2022/12/12 09:56:58;;;;;;;16.77;12.63;;;0.80;99.90;;;;;;5059776;28;20228;-88
2022/12/12 09:59:39;;;;;;;18.00;12.80;;;0.90;99.90;;;;;;5067913;28;20203;-89
2022/12/12 10:02:15;;;;;;;16.67;11.27;;;0.90;99.90;;;;;;5061727;28;20216;-88
2022/12/12 10:04:58;;;;;;;18.17;11.05;;;0.90;99.90;;;;;;5063405;28;20621;-87
2022/12/12 10:07:35;;;;;;;21.05;13.23;;;0.90;99.90;;;;;;5079739;28;20212;-87
2022/12/12 10:10:25;;;;;;;16.48;12.65;;;0.90;99.90;;;;;;5084684;28;20203;-85
2022/12/12 10:13:00;;;;;;;16.70;12.05;;;0.80;99.90;;;;;;5071967;28;20196;-86
2022/12/12 10:15:38;;;;;;;15.27;11.63;;;0.90;99.90;;;;;;5070510;28;20204;-84
2022/12/12 10:18:32;;;;;;;22.17;12.90;;;0.90;99.90;;;;;;5066397;28;20228;-86
2022/12/12 10:24:08;;;;;;;16.60;10.82;;;1.00;99.90;;;;;;5253118;23;20227;-88
2022/12/12 10:26:41;;;;;;;16.08;11.95;;;1.00;99.90;;;;;;5093449;28;20234;-87
2022/12/12 10:29:20;;;;;;;18.25;13.20;;;1.40;99.90;;;;;;5064223;28;20484;-88
2022/12/12 10:32:13;;;;;;;19.90;12.05;;;1.00;99.90;;;;;;5055827;28;20280;-87
2022/12/12 10:35:01;;;;;;;17.58;12.77;;;1.00;99.90;;;;;;5061830;28;20207;-85
2022/12/12 10:38:10;;;;;;;18.00;12.50;;;1.10;99.90;;;;;;5022897;28;20278;-87
2022/12/12 10:41:01;;;;;;;15.40;12.80;;;1.10;99.90;;;;;;5046946;28;20197;-87
2022/12/12 10:43:38;;;;;;;15.93;12.57;;;1.00;99.90;;;;;;5029847;28;20208;-89
2022/12/12 10:46:11;;;;;;;18.23;12.18;;;1.00;99.90;;;;;;5051125;28;20217;-86
2022/12/12 10:48:41;;;;;;;21.52;14.73;;;1.00;99.90;;;;;;5060345;28;20238;-90
2022/12/12 10:51:11;;;;;;;20.77;14.32;;;1.10;99.90;;;;;;5066831;28;20200;-85
2022/12/12 10:53:41;;;;;;;17.83;13.35;;;1.10;99.90;;;;;;5424022;22;20240;-87
2022/12/12 10:56:23;;;;;;;20.58;12.38;;;1.10;99.90;;;;;;5051649;28;20197;-89
2022/12/12 10:58:54;;;;;;;19.98;13.88;;;1.00;99.90;;;;;;5035065;28;20199;-89
2022/12/12 11:01:35;;;;;;;23.23;13.85;;;1.00;99.90;;;;;;5039523;28;20217;-88
2022/12/12 11:04:30;;;;;;;20.33;14.20;;;1.10;99.90;;;;;;5048220;28;20651;-87
2022/12/12 11:06:59;;;;;;;15.85;12.27;;;1.20;99.90;;;;;;5044263;28;20523;-86
2022/12/12 11:09:31;;;;;;;18.60;11.93;;;1.30;99.90;;;;;;5041081;28;20409;-88
2022/12/12 11:12:12;;;;;;;18.38;13.23;;;1.30;99.90;;;;;;5039700;28;20182;-91
2022/12/12 11:14:50;;;;;;;22.20;12.40;;;1.30;99.90;;;;;;5297292;22;20247;-87
2022/12/12 11:17:27;;;;;;;18.25;12.43;;;1.40;99.90;;;;;;5068804;28;20234;-88
2022/12/12 11:19:59;;;;;;;20.02;12.35;;;1.40;99.90;;;;;;5059581;28;20197;-88
2022/12/12 11:22:30;;;;;;;16.95;11.38;;;1.40;99.90;;;;;;5064815;28;20277;-86
2022/12/12 11:25:00;;;;;;;23.60;12.30;;;1.40;99.90;;;;;;5074805;28;20253;-88
2022/12/12 11:29:59;;;;;;;15.25;11.40;;;1.30;99.90;;;;;;5014616;28;20230;-88
2022/12/12 11:43:25;;;;;;;19.45;11.90;;;1.50;99.90;;;;;;5070793;28;20224;-88
2022/12/12 11:54:27;;;;;;;15.13;9.50;;;1.60;99.90;;;;;;5050089;23;20233;-88
2022/12/12 11:57:13;;;;;;;12.27;9.25;;;1.60;99.90;;;;;;5303512;22;20241;-88
2022/12/12 12:00:02;;;;;;;13.02;8.98;;;1.60;99.90;;;;;;4991483;28;20223;-88
2022/12/12 12:05:32;;;;;;;10.32;7.78;;;1.60;99.90;;;;;;5172270;23;20273;-88
2022/12/12 12:08:20;;;;;;;13.32;8.98;;;1.70;99.90;;;;;;4996249;28;20343;-88
2022/12/12 12:11:26;;;;;;;11.93;7.95;;;1.70;99.90;;;;;;4996226;28;20222;-88
2022/12/12 12:14:18;;;;;;;10.98;7.57;;;1.60;99.90;;;;;;4989126;28;20282;-89
2022/12/12 12:17:00;;;;;;;14.38;9.30;;;1.70;99.90;;;;;;4994770;28;20235;-90
2022/12/12 12:19:59;;;;;;;14.43;9.20;;;1.80;99.90;;;;;;5000019;28;20205;-87
2022/12/12 12:22:42;;;;;;;17.23;8.00;;;1.80;99.90;;;;;;4981684;28;20205;-89
2022/12/12 12:25:24;;;;;;;14.65;9.13;;;1.90;99.90;;;;;;4996459;28;20206;-89
2022/12/12 12:28:29;;;;;;;11.70;8.10;;;2.00;99.90;;;;;;5012203;28;20240;-90
2022/12/12 12:31:33;;;;;;;12.05;7.97;;;2.00;99.90;;;;;;5009209;28;20228;-87
2022/12/12 12:34:06;;;;;;;8.95;6.53;;;1.90;99.90;;;;;;5005360;28;20190;-89
2022/12/12 12:37:07;;;;;;;13.40;8.57;;;1.90;99.90;;;;;;5010734;28;20206;-89
2022/12/12 12:39:58;;;;;;;9.57;6.75;;;1.80;99.90;;;;;;4998071;28;20206;-89
2022/12/12 12:42:51;;;;;;;10.45;7.30;;;1.80;99.90;;;;;;5001862;28;20198;-89
2022/12/12 12:45:50;;;;;;;8.70;7.53;;;1.70;99.90;;;;;;4999117;28;20210;-89
2022/12/12 12:48:53;;;;;;;8.98;6.03;;;1.60;99.90;;;;;;4995498;28;20438;-89
2022/12/12 12:51:34;;;;;;;9.88;6.70;;;1.60;99.90;;;;;;5001890;28;20221;-90
2022/12/12 12:54:28;;;;;;;8.10;6.70;;;1.60;99.90;;;;;;4994063;28;20293;-90
2022/12/12 12:57:18;;;;;;;11.38;6.75;;;1.50;99.90;;;;;;4985783;28;20203;-86
2022/12/12 13:00:14;;;;;;;10.23;6.00;;;1.50;99.90;;;;;;4992363;28;20253;-87
2022/12/12 13:03:04;;;;;;;7.82;5.88;;;1.60;99.90;;;;;;4993227;28;20240;-85
2022/12/12 13:05:55;;;;;;;10.27;6.95;;;1.50;99.90;;;;;;4999303;28;20239;-84
2022/12/12 13:09:19;;;;;;;10.25;6.30;;;1.40;99.90;;;;;;4988992;28;20207;-85
2022/12/12 13:11:54;;;;;;;9.40;6.43;;;1.50;99.90;;;;;;4911574;29;20300;-86
2022/12/12 13:14:32;;;;;;;7.82;5.63;;;1.50;99.90;;;;;;4906391;29;20255;-85
2022/12/12 13:17:05;;;;;;;11.85;6.25;;;1.50;99.90;;;;;;4970735;28;20195;-87
2022/12/12 13:19:39;;;;;;;11.93;5.82;;;1.50;99.90;;;;;;4986081;28;20336;-83
2022/12/12 13:22:25;;;;;;;8.68;6.55;;;1.60;99.90;;;;;;4995353;28;20249;-89
2022/12/12 13:25:29;;;;;;;10.68;6.68;;;1.60;99.90;;;;;;4992824;28;20205;-85
2022/12/12 13:28:05;;;;;;;6.40;5.20;;;1.40;99.90;;;;;;4976687;28;20462;-85
2022/12/12 13:31:05;;;;;;;8.20;7.28;;;1.40;99.90;;;;;;5000255;28;20521;-88
2022/12/12 13:33:56;;;;;;;5.72;4.60;;;1.30;99.90;;;;;;4998265;28;20233;-85
2022/12/12 13:36:31;;;;;;;8.90;5.28;;;1.30;99.90;;;;;;5004331;28;20264;-87
2022/12/12 13:39:05;;;;;;;6.07;5.00;;;1.40;99.90;;;;;;4997745;28;20530;-83
2022/12/12 13:41:52;;;;;;;9.90;5.45;;;1.40;99.90;;;;;;4999648;28;20246;-88
2022/12/12 13:44:40;;;;;;;7.68;5.00;;;1.40;99.90;;;;;;5001317;28;20248;-84
2022/12/12 13:47:20;;;;;;;7.95;4.47;;;1.30;99.90;;;;;;4994306;28;20272;-85
2022/12/12 13:50:01;;;;;;;7.25;5.05;;;1.30;99.90;;;;;;4993283;28;20277;-87
2022/12/12 13:52:33;;;;;;;6.90;5.93;;;1.20;99.90;;;;;;4993451;28;20206;-84
2022/12/12 13:55:11;;;;;;;6.07;4.82;;;1.30;99.90;;;;;;4990762;28;20202;-87
2022/12/12 13:58:07;;;;;;;10.02;4.80;;;1.20;99.90;;;;;;5003865;28;20257;-86
2022/12/12 14:00:39;;;;;;;6.38;4.65;;;1.20;99.90;;;;;;4985024;28;20222;-85
2022/12/12 14:03:29;;;;;;;10.05;5.88;;;1.20;99.90;;;;;;4998763;28;20220;-86
2022/12/12 14:06:10;;;;;;;6.22;5.65;;;1.00;99.90;;;;;;4993912;28;20187;-86
2022/12/12 14:08:45;;;;;;;7.20;4.72;;;1.00;99.90;;;;;;5009493;28;20522;-85
2022/12/12 14:11:26;;;;;;;9.32;5.57;;;1.00;99.90;;;;;;5001414;28;20217;-86
2022/12/12 14:14:08;;;;;;;7.45;6.45;;;0.90;99.90;;;;;;5005831;28;20204;-87
2022/12/12 14:16:36;;;;;;;9.15;5.65;;;0.90;99.90;;;;;;4974508;28;20506;-87
2022/12/12 14:19:06;;;;;;;6.18;5.55;;;0.80;99.90;;;;;;5002884;28;20226;-88
2022/12/12 14:21:42;;;;;;;9.18;6.15;;;0.80;99.90;;;;;;4996725;28;20198;-86
2022/12/12 14:24:41;;;;;;;9.25;7.70;;;0.70;99.90;;;;;;4991655;28;20248;-86
2022/12/12 14:27:16;;;;;;;7.60;5.43;;;0.70;99.90;;;;;;5004148;28;20260;-86
2022/12/12 14:29:44;;;;;;;7.25;5.65;;;0.70;99.90;;;;;;5002695;28;20264;-86
2022/12/12 14:32:52;;;;;;;9.02;6.20;;;0.60;99.90;;;;;;4995041;28;20229;-89
2022/12/12 14:35:43;;;;;;;7.60;5.93;;;0.60;99.90;;;;;;4959947;28;20202;-87
2022/12/12 14:38:36;;;;;;;12.13;6.35;;;0.50;99.90;;;;;;4986597;28;20250;-88
2022/12/12 14:41:13;;;;;;;6.53;5.35;;;0.50;99.90;;;;;;4999662;28;20206;-85
2022/12/12 14:43:51;;;;;;;10.90;8.38;;;0.60;99.90;;;;;;4991032;28;20205;-87
2022/12/12 14:46:41;;;;;;;11.40;7.50;;;0.70;99.90;;;;;;4996080;28;20216;-84
2022/12/12 14:49:14;;;;;;;6.88;5.68;;;0.60;99.90;;;;;;5001845;28;20195;-86
2022/12/12 14:51:45;;;;;;;6.40;5.70;;;0.80;99.90;;;;;;4991020;28;20648;-85
2022/12/12 14:54:21;;;;;;;6.60;5.03;;;0.80;99.90;;;;;;4998761;28;20203;-87
2022/12/12 14:56:51;;;;;;;7.30;5.50;;;0.90;99.90;;;;;;4999873;28;20249;-86
2022/12/12 14:59:35;;;;;;;5.40;4.60;;;0.80;99.90;;;;;;5004512;28;20290;-89
2022/12/12 15:02:33;;;;;;;6.72;5.20;;;1.10;99.90;;;;;;5001455;28;20234;-86
2022/12/12 15:05:05;;;;;;;5.80;5.10;;;0.90;99.90;;;;;;4996965;28;20202;-88
2022/12/12 15:07:56;;;;;;;8.35;5.50;;;0.90;99.90;;;;;;4997833;28;20217;-85
2022/12/12 15:10:29;;;;;;;7.53;5.15;;;0.90;99.90;;;;;;5000428;28;20235;-85
2022/12/12 15:12:57;;;;;;;7.85;5.28;;;0.90;99.90;;;;;;5002233;28;20334;-88
2022/12/12 15:15:28;;;;;;;8.10;6.30;;;0.90;99.90;;;;;;4991137;28;20514;-87
2022/12/12 15:18:00;;;;;;;6.05;5.45;;;1.00;99.90;;;;;;5000760;28;20568;-85
2022/12/12 15:20:29;;;;;;;7.30;6.30;;;1.00;99.90;;;;;;4994076;28;20210;-86
2022/12/12 15:23:07;;;;;;;8.32;7.40;;;1.00;99.90;;;;;;5001624;28;20211;-85
2022/12/12 15:25:46;;;;;;;8.50;6.32;;;0.90;99.90;;;;;;4993042;28;20293;-85
2022/12/12 15:28:17;;;;;;;8.93;6.13;;;0.90;99.90;;;;;;5001889;28;20198;-87
2022/12/12 15:30:50;;;;;;;12.63;8.05;;;0.80;99.90;;;;;;5004024;28;20210;-88
2022/12/12 15:33:24;;;;;;;6.95;5.03;;;1.00;99.90;;;;;;5000608;28;20197;-86
2022/12/12 15:35:56;;;;;;;8.00;5.63;;;0.90;99.90;;;;;;4988457;28;20202;-87
2022/12/12 15:38:31;;;;;;;12.18;6.60;;;0.80;99.90;;;;;;4993812;28;20229;-88
2022/12/12 15:41:02;;;;;;;10.05;7.53;;;0.80;99.90;;;;;;4998351;28;20209;-85
2022/12/12 15:43:43;;;;;;;8.52;6.43;;;0.90;99.90;;;;;;4998145;28;20236;-86
2022/12/12 15:46:16;;;;;;;10.50;6.25;;;0.80;99.90;;;;;;4986904;28;20390;-86
2022/12/12 15:48:51;;;;;;;6.53;5.75;;;0.70;99.90;;;;;;4998257;28;20209;-90
2022/12/12 15:51:19;;;;;;;9.40;5.90;;;0.60;99.90;;;;;;5001049;28;20222;-86